Narsarsuaq

KL  EN  DA
ASIAQ
Weather Now GREENLAND SURVEY
Updated [WGT/WGST] Temperature [°C] Wind [m/s] Air pressure [hPa] Relative humidity [%] Precipitation [mm]
Present Wind chill Speed Max
25.02 07:00-15,0-23,24,5 ⇓6,0101340n/a
25.02 06:00-15,6-23,74,2 ⇙6,3101440n/a
25.02 05:00-15,3-23,44,3 ⇙5,7101438n/a
25.02 04:00-15,8-24,34,6 ⇙6,8101440n/a
25.02 03:00-15,6-22,93,5 ⇙4,7101339n/a
25.02 02:00-15,6-23,23,8 ⇙5,1101341n/a
25.02 01:00-15,1-21,83,1 ⇙3,9101241n/a
25.02 00:00-14,9-20,02,1 ⇙2,8101241n/a
24.02 23:00-12,2-17,92,8 ⇑4,4101134n/a
24.02 22:00-12,3-15,81,5 ⇒3,5101138n/a
24.02 21:00-13,0-18,72,7 ⇒5,7101045n/a
24.02 20:00-11,90,00,5 ⇓1,7100933n/a
24.02 19:00-10,2-18,56,2 ⇐8,8100734n/a
24.02 18:00-10,2-14,72,2 ⇗3,5100634n/a
24.02 17:00-10,4-15,32,5 ⇗3,5100445n/a
24.02 16:00-9,60,01,2 ⇗1,7100247n/a
24.02 15:00-9,2-15,94,4 ⇗6,1100143n/a
24.02 14:00-7,2-13,64,6 ⇗7,21000340,0
24.02 13:00-7,2-12,43,2 ⇗5,0999400,0
24.02 12:00-6,3-11,53,4 ⇗5,2998370,0
24.02 11:00-7,2-14,15,2 ⇒6,6998400,0
24.02 10:00-7,4-13,23,8 ⇑5,9998560,0
24.02 09:00-7,7-14,14,4 ⇗5,5997590,0
24.02 08:00-6,7-14,06,1 ⇗8,1996570,0
24.02 07:00-6,9-13,24,5 ⇒6,099560-0,1
Position: (61.166667,-45.416667)

[Back]